Tintown, Arizona
Current Conditions -  °F | °C
As of 8:56 AM on Monday 22 Dec 2014 (Local Time) from KDUG Reporting Station
Clear Clear  
Wind Chill: 45°   Ceiling: Unl
Heat Index: 45°   Visibility: 10mi
Dew Point: 34°   Wind: 0mph
Humidity: 65%   Direction: NA
Pressure: 30.04"   Gusts: NA
Location:  31.4799°N, 109.96°W
Report Text: KDUG 221556Z AUTO 00000KT 10SM CLR 07/01 A3004 RMK AO2 SLP152 T00720011
Loading
Personal Weather Stations






























Interactive Weather Map New forecast layout! Learn more

10-Day Weather Forecast

Advertisements
Track Severe Weather on mobile